sensor_id;sensor_type;location;lat;lon;timestamp;P1;durP1;ratioP1;P2;durP2;ratioP2
79074;SDS011;68476;42.710;23.388;2023-03-26T00:01:23;1.98;;;1.40;;
79074;SDS011;68476;42.710;23.388;2023-03-26T00:03:49;2.08;;;1.63;;
79074;SDS011;68476;42.710;23.388;2023-03-26T00:06:23;4.05;;;1.70;;
79074;SDS011;68476;42.710;23.388;2023-03-26T00:08:53;2.42;;;1.52;;
79074;SDS011;68476;42.710;23.388;2023-03-26T00:11:21;2.38;;;1.50;;
79074;SDS011;68476;42.710;23.388;2023-03-26T00:13:48;1.65;;;1.30;;
79074;SDS011;68476;42.710;23.388;2023-03-26T00:16:15;1.38;;;1.10;;
79074;SDS011;68476;42.710;23.388;2023-03-26T00:18:43;2.88;;;1.20;;
79074;SDS011;68476;42.710;23.388;2023-03-26T00:21:20;1.45;;;1.05;;
79074;SDS011;68476;42.710;23.388;2023-03-26T00:23:52;1.73;;;1.13;;
79074;SDS011;68476;42.710;23.388;2023-03-26T00:26:24;1.55;;;1.10;;
79074;SDS011;68476;42.710;23.388;2023-03-26T00:28:53;1.20;;;0.98;;
79074;SDS011;68476;42.710;23.388;2023-03-26T00:31:18;1.85;;;1.17;;
79074;SDS011;68476;42.710;23.388;2023-03-26T00:33:44;2.85;;;1.20;;
79074;SDS011;68476;42.710;23.388;2023-03-26T00:36:14;1.77;;;1.20;;
79074;SDS011;68476;42.710;23.388;2023-03-26T00:38:41;2.05;;;1.15;;
79074;SDS011;68476;42.710;23.388;2023-03-26T00:41:09;1.38;;;1.10;;
79074;SDS011;68476;42.710;23.388;2023-03-26T00:43:46;1.83;;;1.30;;
79074;SDS011;68476;42.710;23.388;2023-03-26T00:46:12;2.78;;;1.33;;
79074;SDS011;68476;42.710;23.388;2023-03-26T00:48:38;1.70;;;1.27;;
79074;SDS011;68476;42.710;23.388;2023-03-26T00:51:06;1.25;;;0.93;;
79074;SDS011;68476;42.710;23.388;2023-03-26T00:53:32;2.30;;;1.50;;
79074;SDS011;68476;42.710;23.388;2023-03-26T00:55:58;1.90;;;1.30;;
79074;SDS011;68476;42.710;23.388;2023-03-26T00:58:27;1.92;;;1.40;;
79074;SDS011;68476;42.710;23.388;2023-03-26T01:00:57;1.90;;;1.23;;
79074;SDS011;68476;42.710;23.388;2023-03-26T01:03:27;1.75;;;1.20;;
79074;SDS011;68476;42.710;23.388;2023-03-26T01:05:58;2.17;;;1.30;;
79074;SDS011;68476;42.710;23.388;2023-03-26T01:11:19;1.83;;;1.30;;
79074;SDS011;68476;42.710;23.388;2023-03-26T01:19:05;1.80;;;1.20;;
79074;SDS011;68476;42.710;23.388;2023-03-26T01:21:38;2.30;;;1.27;;
79074;SDS011;68476;42.710;23.388;2023-03-26T01:24:07;1.70;;;1.20;;
79074;SDS011;68476;42.710;23.388;2023-03-26T01:34:59;2.53;;;1.25;;
79074;SDS011;68476;42.710;23.388;2023-03-26T01:42:51;2.20;;;1.38;;
79074;SDS011;68476;42.710;23.388;2023-03-26T01:47:50;1.83;;;1.20;;
79074;SDS011;68476;42.710;23.388;2023-03-26T01:50:17;2.60;;;1.83;;
79074;SDS011;68476;42.710;23.388;2023-03-26T01:52:42;2.42;;;1.30;;
79074;SDS011;68476;42.710;23.388;2023-03-26T01:55:08;2.00;;;1.25;;
79074;SDS011;68476;42.710;23.388;2023-03-26T01:57:48;1.92;;;1.30;;
79074;SDS011;68476;42.710;23.388;2023-03-26T02:00:26;2.00;;;1.10;;
79074;SDS011;68476;42.710;23.388;2023-03-26T02:05:46;2.60;;;1.23;;
79074;SDS011;68476;42.710;23.388;2023-03-26T02:11:11;2.20;;;1.40;;
79074;SDS011;68476;42.710;23.388;2023-03-26T02:13:39;1.48;;;1.10;;
79074;SDS011;68476;42.710;23.388;2023-03-26T02:16:07;2.05;;;1.45;;
79074;SDS011;68476;42.710;23.388;2023-03-26T02:18:36;2.20;;;1.52;;
79074;SDS011;68476;42.710;23.388;2023-03-26T02:23:34;2.10;;;1.40;;
79074;SDS011;68476;42.710;23.388;2023-03-26T02:26:09;1.73;;;1.30;;
79074;SDS011;68476;42.710;23.388;2023-03-26T02:28:35;3.65;;;1.60;;
79074;SDS011;68476;42.710;23.388;2023-03-26T02:31:01;2.30;;;1.67;;
79074;SDS011;68476;42.710;23.388;2023-03-26T02:33:27;2.30;;;1.70;;
79074;SDS011;68476;42.710;23.388;2023-03-26T02:35:54;3.08;;;1.60;;
79074;SDS011;68476;42.710;23.388;2023-03-26T02:40:50;2.72;;;1.70;;
79074;SDS011;68476;42.710;23.388;2023-03-26T02:43:17;2.40;;;1.60;;
79074;SDS011;68476;42.710;23.388;2023-03-26T02:45:42;2.78;;;1.80;;
79074;SDS011;68476;42.710;23.388;2023-03-26T02:48:07;2.75;;;1.80;;
79074;SDS011;68476;42.710;23.388;2023-03-26T02:50:33;2.00;;;1.52;;
79074;SDS011;68476;42.710;23.388;2023-03-26T02:53:00;2.40;;;1.70;;
79074;SDS011;68476;42.710;23.388;2023-03-26T02:55:26;3.72;;;1.70;;
79074;SDS011;68476;42.710;23.388;2023-03-26T02:57:52;2.13;;;1.70;;
79074;SDS011;68476;42.710;23.388;2023-03-26T03:00:17;2.78;;;1.50;;
79074;SDS011;68476;42.710;23.388;2023-03-26T03:02:46;2.55;;;1.88;;
79074;SDS011;68476;42.710;23.388;2023-03-26T03:05:11;2.50;;;1.92;;
79074;SDS011;68476;42.710;23.388;2023-03-26T03:07:38;2.88;;;1.70;;
79074;SDS011;68476;42.710;23.388;2023-03-26T03:10:04;2.67;;;1.83;;
79074;SDS011;68476;42.710;23.388;2023-03-26T03:12:32;2.40;;;1.80;;
79074;SDS011;68476;42.710;23.388;2023-03-26T03:14:58;2.45;;;1.70;;
79074;SDS011;68476;42.710;23.388;2023-03-26T03:17:24;2.20;;;1.73;;
79074;SDS011;68476;42.710;23.388;2023-03-26T03:19:50;2.45;;;1.70;;
79074;SDS011;68476;42.710;23.388;2023-03-26T03:22:16;2.65;;;1.90;;
79074;SDS011;68476;42.710;23.388;2023-03-26T03:24:41;2.38;;;1.73;;
79074;SDS011;68476;42.710;23.388;2023-03-26T03:27:08;2.78;;;2.00;;
79074;SDS011;68476;42.710;23.388;2023-03-26T03:29:33;2.50;;;1.88;;
79074;SDS011;68476;42.710;23.388;2023-03-26T03:31:59;2.67;;;2.10;;
79074;SDS011;68476;42.710;23.388;2023-03-26T03:34:25;2.70;;;2.17;;
79074;SDS011;68476;42.710;23.388;2023-03-26T03:36:50;3.00;;;2.55;;
79074;SDS011;68476;42.710;23.388;2023-03-26T03:39:16;3.80;;;2.80;;
79074;SDS011;68476;42.710;23.388;2023-03-26T03:41:41;4.25;;;3.15;;
79074;SDS011;68476;42.710;23.388;2023-03-26T03:44:07;4.10;;;3.15;;
79074;SDS011;68476;42.710;23.388;2023-03-26T03:46:32;3.83;;;3.00;;
79074;SDS011;68476;42.710;23.388;2023-03-26T03:48:58;3.72;;;2.90;;
79074;SDS011;68476;42.710;23.388;2023-03-26T03:51:23;3.33;;;2.60;;
79074;SDS011;68476;42.710;23.388;2023-03-26T03:53:49;3.83;;;2.65;;
79074;SDS011;68476;42.710;23.388;2023-03-26T03:56:14;3.97;;;2.85;;
79074;SDS011;68476;42.710;23.388;2023-03-26T03:58:43;3.75;;;2.60;;
79074;SDS011;68476;42.710;23.388;2023-03-26T04:01:10;4.70;;;3.40;;
79074;SDS011;68476;42.710;23.388;2023-03-26T04:03:37;5.53;;;3.60;;
79074;SDS011;68476;42.710;23.388;2023-03-26T04:06:03;6.32;;;3.67;;
79074;SDS011;68476;42.710;23.388;2023-03-26T04:08:31;5.10;;;3.45;;
79074;SDS011;68476;42.710;23.388;2023-03-26T04:10:57;4.65;;;3.25;;
79074;SDS011;68476;42.710;23.388;2023-03-26T04:13:22;3.53;;;2.63;;
79074;SDS011;68476;42.710;23.388;2023-03-26T04:15:48;4.47;;;3.20;;
79074;SDS011;68476;42.710;23.388;2023-03-26T04:18:13;4.80;;;3.03;;
79074;SDS011;68476;42.710;23.388;2023-03-26T04:20:39;4.93;;;3.60;;
79074;SDS011;68476;42.710;23.388;2023-03-26T04:23:11;4.57;;;3.40;;
79074;SDS011;68476;42.710;23.388;2023-03-26T04:25:38;4.65;;;3.53;;
79074;SDS011;68476;42.710;23.388;2023-03-26T04:30:55;4.80;;;3.53;;
79074;SDS011;68476;42.710;23.388;2023-03-26T04:33:25;3.88;;;2.83;;
79074;SDS011;68476;42.710;23.388;2023-03-26T04:35:52;5.30;;;3.50;;
79074;SDS011;68476;42.710;23.388;2023-03-26T04:38:18;4.57;;;3.58;;
79074;SDS011;68476;42.710;23.388;2023-03-26T04:40:44;4.82;;;3.67;;
79074;SDS011;68476;42.710;23.388;2023-03-26T04:43:13;6.80;;;3.70;;
79074;SDS011;68476;42.710;23.388;2023-03-26T04:45:42;4.93;;;3.65;;
79074;SDS011;68476;42.710;23.388;2023-03-26T04:48:09;5.05;;;3.45;;
79074;SDS011;68476;42.710;23.388;2023-03-26T04:50:38;5.60;;;3.50;;
79074;SDS011;68476;42.710;23.388;2023-03-26T04:53:05;5.25;;;3.33;;
79074;SDS011;68476;42.710;23.388;2023-03-26T04:55:37;5.35;;;3.65;;
79074;SDS011;68476;42.710;23.388;2023-03-26T04:58:07;5.90;;;3.53;;
79074;SDS011;68476;42.710;23.388;2023-03-26T05:00:33;5.00;;;3.60;;
79074;SDS011;68476;42.710;23.388;2023-03-26T05:02:59;5.50;;;3.85;;
79074;SDS011;68476;42.710;23.388;2023-03-26T05:05:25;6.22;;;3.95;;
79074;SDS011;68476;42.710;23.388;2023-03-26T05:07:52;5.50;;;4.00;;
79074;SDS011;68476;42.710;23.388;2023-03-26T05:10:18;5.95;;;4.22;;
79074;SDS011;68476;42.710;23.388;2023-03-26T05:12:45;5.82;;;4.32;;
79074;SDS011;68476;42.710;23.388;2023-03-26T05:15:11;6.20;;;4.30;;
79074;SDS011;68476;42.710;23.388;2023-03-26T05:17:38;6.97;;;4.63;;
79074;SDS011;68476;42.710;23.388;2023-03-26T05:20:06;5.00;;;3.90;;
79074;SDS011;68476;42.710;23.388;2023-03-26T05:25:06;6.72;;;3.80;;
79074;SDS011;68476;42.710;23.388;2023-03-26T05:27:32;5.43;;;3.70;;
79074;SDS011;68476;42.710;23.388;2023-03-26T05:30:01;4.43;;;3.65;;
79074;SDS011;68476;42.710;23.388;2023-03-26T05:32:27;10.05;;;4.70;;
79074;SDS011;68476;42.710;23.388;2023-03-26T05:34:52;6.07;;;4.20;;
79074;SDS011;68476;42.710;23.388;2023-03-26T05:37:17;5.68;;;4.18;;
79074;SDS011;68476;42.710;23.388;2023-03-26T05:39:44;6.50;;;4.18;;
79074;SDS011;68476;42.710;23.388;2023-03-26T05:42:11;7.28;;;4.75;;
79074;SDS011;68476;42.710;23.388;2023-03-26T05:44:37;7.13;;;4.82;;
79074;SDS011;68476;42.710;23.388;2023-03-26T05:47:02;7.50;;;5.40;;
79074;SDS011;68476;42.710;23.388;2023-03-26T05:49:27;6.32;;;4.72;;
79074;SDS011;68476;42.710;23.388;2023-03-26T05:51:53;7.10;;;5.18;;
79074;SDS011;68476;42.710;23.388;2023-03-26T05:54:18;8.50;;;5.43;;
79074;SDS011;68476;42.710;23.388;2023-03-26T05:56:43;8.40;;;5.57;;
79074;SDS011;68476;42.710;23.388;2023-03-26T05:59:09;7.70;;;5.55;;
79074;SDS011;68476;42.710;23.388;2023-03-26T06:01:34;6.82;;;4.93;;
79074;SDS011;68476;42.710;23.388;2023-03-26T06:04:00;7.95;;;5.80;;
79074;SDS011;68476;42.710;23.388;2023-03-26T06:06:25;7.05;;;5.43;;
79074;SDS011;68476;42.710;23.388;2023-03-26T06:08:51;6.65;;;5.20;;
79074;SDS011;68476;42.710;23.388;2023-03-26T06:11:18;6.25;;;4.90;;
79074;SDS011;68476;42.710;23.388;2023-03-26T06:13:44;7.03;;;5.55;;
79074;SDS011;68476;42.710;23.388;2023-03-26T06:16:11;7.68;;;5.63;;
79074;SDS011;68476;42.710;23.388;2023-03-26T06:18:38;6.63;;;5.20;;
79074;SDS011;68476;42.710;23.388;2023-03-26T06:21:04;8.20;;;4.97;;
79074;SDS011;68476;42.710;23.388;2023-03-26T06:23:30;8.98;;;6.22;;
79074;SDS011;68476;42.710;23.388;2023-03-26T06:25:56;6.88;;;5.03;;
79074;SDS011;68476;42.710;23.388;2023-03-26T06:28:22;6.30;;;4.90;;
79074;SDS011;68476;42.710;23.388;2023-03-26T06:30:48;7.72;;;5.50;;
79074;SDS011;68476;42.710;23.388;2023-03-26T06:33:13;7.13;;;5.47;;
79074;SDS011;68476;42.710;23.388;2023-03-26T06:35:39;10.93;;;4.95;;
79074;SDS011;68476;42.710;23.388;2023-03-26T06:38:06;9.07;;;6.10;;
79074;SDS011;68476;42.710;23.388;2023-03-26T06:40:32;6.65;;;5.03;;
79074;SDS011;68476;42.710;23.388;2023-03-26T06:42:57;8.68;;;5.78;;
79074;SDS011;68476;42.710;23.388;2023-03-26T06:45:25;8.73;;;5.93;;
79074;SDS011;68476;42.710;23.388;2023-03-26T06:47:51;7.97;;;5.35;;
79074;SDS011;68476;42.710;23.388;2023-03-26T06:50:16;6.18;;;5.32;;
79074;SDS011;68476;42.710;23.388;2023-03-26T06:52:41;6.25;;;5.00;;
79074;SDS011;68476;42.710;23.388;2023-03-26T06:55:07;6.93;;;5.65;;
79074;SDS011;68476;42.710;23.388;2023-03-26T06:57:34;7.05;;;5.55;;
79074;SDS011;68476;42.710;23.388;2023-03-26T07:00:00;6.97;;;4.85;;
79074;SDS011;68476;42.710;23.388;2023-03-26T07:02:25;8.07;;;6.30;;
79074;SDS011;68476;42.710;23.388;2023-03-26T07:04:50;7.10;;;5.35;;
79074;SDS011;68476;42.710;23.388;2023-03-26T07:07:17;6.95;;;4.63;;
79074;SDS011;68476;42.710;23.388;2023-03-26T07:09:45;6.38;;;5.00;;
79074;SDS011;68476;42.710;23.388;2023-03-26T07:12:12;6.57;;;5.28;;
79074;SDS011;68476;42.710;23.388;2023-03-26T07:14:38;6.72;;;5.22;;
79074;SDS011;68476;42.710;23.388;2023-03-26T07:17:03;6.53;;;4.97;;
79074;SDS011;68476;42.710;23.388;2023-03-26T07:19:28;9.25;;;5.90;;
79074;SDS011;68476;42.710;23.388;2023-03-26T07:21:54;7.82;;;5.43;;
79074;SDS011;68476;42.710;23.388;2023-03-26T07:24:20;8.27;;;5.70;;
79074;SDS011;68476;42.710;23.388;2023-03-26T07:27:02;9.15;;;5.97;;
79074;SDS011;68476;42.710;23.388;2023-03-26T07:29:33;5.47;;;4.43;;
79074;SDS011;68476;42.710;23.388;2023-03-26T07:37:20;7.03;;;5.28;;
79074;SDS011;68476;42.710;23.388;2023-03-26T07:48:07;5.32;;;4.30;;
79074;SDS011;68476;42.710;23.388;2023-03-26T07:50:39;11.32;;;9.23;;
79074;SDS011;68476;42.710;23.388;2023-03-26T07:53:05;7.68;;;4.35;;
79074;SDS011;68476;42.710;23.388;2023-03-26T07:55:31;7.63;;;5.45;;
79074;SDS011;68476;42.710;23.388;2023-03-26T07:58:03;8.07;;;5.78;;
79074;SDS011;68476;42.710;23.388;2023-03-26T08:00:51;6.20;;;4.95;;
79074;SDS011;68476;42.710;23.388;2023-03-26T08:12:00;7.93;;;4.82;;
79074;SDS011;68476;42.710;23.388;2023-03-26T08:20:08;6.10;;;4.53;;
79074;SDS011;68476;42.710;23.388;2023-03-26T08:22:41;5.15;;;4.15;;
79074;SDS011;68476;42.710;23.388;2023-03-26T08:30:44;5.75;;;4.43;;
79074;SDS011;68476;42.710;23.388;2023-03-26T08:33:18;5.70;;;3.78;;
79074;SDS011;68476;42.710;23.388;2023-03-26T08:35:45;5.75;;;3.97;;
79074;SDS011;68476;42.710;23.388;2023-03-26T08:38:12;4.25;;;3.13;;
79074;SDS011;68476;42.710;23.388;2023-03-26T09:17:19;5.72;;;2.47;;
79074;SDS011;68476;42.710;23.388;2023-03-26T09:50:55;4.70;;;2.50;;
79074;SDS011;68476;42.710;23.388;2023-03-26T10:07:39;6.53;;;2.10;;
79074;SDS011;68476;42.710;23.388;2023-03-26T10:10:28;2.90;;;2.17;;
79074;SDS011;68476;42.710;23.388;2023-03-26T10:13:20;4.55;;;2.10;;
79074;SDS011;68476;42.710;23.388;2023-03-26T10:18:48;2.58;;;1.77;;
79074;SDS011;68476;42.710;23.388;2023-03-26T10:21:45;3.90;;;2.20;;
79074;SDS011;68476;42.710;23.388;2023-03-26T10:24:22;3.50;;;2.03;;
79074;SDS011;68476;42.710;23.388;2023-03-26T10:35:17;3.20;;;2.03;;
79074;SDS011;68476;42.710;23.388;2023-03-26T10:54:38;2.72;;;1.80;;
79074;SDS011;68476;42.710;23.388;2023-03-26T11:00:16;3.80;;;1.77;;
79074;SDS011;68476;42.710;23.388;2023-03-26T11:08:49;3.20;;;1.80;;
79074;SDS011;68476;42.710;23.388;2023-03-26T11:16:53;3.03;;;1.70;;
79074;SDS011;68476;42.710;23.388;2023-03-26T11:22:16;4.50;;;1.63;;
79074;SDS011;68476;42.710;23.388;2023-03-26T11:24:59;2.30;;;1.60;;
79074;SDS011;68476;42.710;23.388;2023-03-26T11:33:02;2.60;;;1.45;;
79074;SDS011;68476;42.710;23.388;2023-03-26T11:35:36;2.35;;;1.48;;
79074;SDS011;68476;42.710;23.388;2023-03-26T11:38:27;2.53;;;1.60;;
79074;SDS011;68476;42.710;23.388;2023-03-26T11:41:04;3.15;;;1.70;;
79074;SDS011;68476;42.710;23.388;2023-03-26T11:43:39;2.28;;;1.60;;
79074;SDS011;68476;42.710;23.388;2023-03-26T11:46:07;3.08;;;1.67;;
79074;SDS011;68476;42.710;23.388;2023-03-26T11:48:38;2.88;;;1.90;;
79074;SDS011;68476;42.710;23.388;2023-03-26T11:51:10;2.33;;;1.55;;
79074;SDS011;68476;42.710;23.388;2023-03-26T11:53:44;3.30;;;2.13;;
79074;SDS011;68476;42.710;23.388;2023-03-26T11:58:45;2.45;;;1.40;;
79074;SDS011;68476;42.710;23.388;2023-03-26T12:01:41;2.30;;;1.60;;
79074;SDS011;68476;42.710;23.388;2023-03-26T12:04:13;2.25;;;1.60;;
79074;SDS011;68476;42.710;23.388;2023-03-26T12:06:49;2.92;;;1.60;;
79074;SDS011;68476;42.710;23.388;2023-03-26T12:09:31;2.35;;;1.70;;
79074;SDS011;68476;42.710;23.388;2023-03-26T12:12:01;2.47;;;1.60;;
79074;SDS011;68476;42.710;23.388;2023-03-26T12:14:29;2.10;;;1.40;;
79074;SDS011;68476;42.710;23.388;2023-03-26T12:19:35;1.98;;;1.40;;
79074;SDS011;68476;42.710;23.388;2023-03-26T12:22:03;3.28;;;1.63;;
79074;SDS011;68476;42.710;23.388;2023-03-26T12:24:30;2.05;;;1.52;;
79074;SDS011;68476;42.710;23.388;2023-03-26T12:27:01;2.00;;;1.45;;
79074;SDS011;68476;42.710;23.388;2023-03-26T12:29:44;1.90;;;1.35;;
79074;SDS011;68476;42.710;23.388;2023-03-26T12:32:15;3.10;;;1.40;;
79074;SDS011;68476;42.710;23.388;2023-03-26T12:34:41;3.20;;;1.70;;
79074;SDS011;68476;42.710;23.388;2023-03-26T12:37:07;4.78;;;1.42;;
79074;SDS011;68476;42.710;23.388;2023-03-26T12:40:04;2.72;;;1.90;;
79074;SDS011;68476;42.710;23.388;2023-03-26T12:42:55;2.25;;;1.60;;
79074;SDS011;68476;42.710;23.388;2023-03-26T12:47:53;3.05;;;1.40;;
79074;SDS011;68476;42.710;23.388;2023-03-26T12:50:22;1.90;;;1.30;;
79074;SDS011;68476;42.710;23.388;2023-03-26T12:55:58;2.78;;;1.40;;
79074;SDS011;68476;42.710;23.388;2023-03-26T13:12:39;3.17;;;1.33;;
79074;SDS011;68476;42.710;23.388;2023-03-26T13:15:19;2.30;;;1.40;;
79074;SDS011;68476;42.710;23.388;2023-03-26T13:21:07;2.03;;;1.30;;
79074;SDS011;68476;42.710;23.388;2023-03-26T13:26:49;1.50;;;1.20;;
79074;SDS011;68476;42.710;23.388;2023-03-26T13:29:25;1.42;;;1.20;;
79074;SDS011;68476;42.710;23.388;2023-03-26T13:40:21;1.63;;;1.20;;
79074;SDS011;68476;42.710;23.388;2023-03-26T13:43:11;3.17;;;1.30;;
79074;SDS011;68476;42.710;23.388;2023-03-26T13:56:51;3.63;;;1.40;;
79074;SDS011;68476;42.710;23.388;2023-03-26T13:59:30;1.42;;;1.10;;
79074;SDS011;68476;42.710;23.388;2023-03-26T14:02:14;1.98;;;1.30;;
79074;SDS011;68476;42.710;23.388;2023-03-26T14:04:48;2.20;;;1.40;;
79074;SDS011;68476;42.710;23.388;2023-03-26T14:07:29;1.80;;;1.20;;
79074;SDS011;68476;42.710;23.388;2023-03-26T14:18:26;2.20;;;1.40;;
79074;SDS011;68476;42.710;23.388;2023-03-26T14:40:29;1.95;;;1.20;;
79074;SDS011;68476;42.710;23.388;2023-03-26T14:43:06;2.03;;;1.30;;
79074;SDS011;68476;42.710;23.388;2023-03-26T14:48:49;1.90;;;1.20;;
79074;SDS011;68476;42.710;23.388;2023-03-26T14:54:17;1.60;;;1.02;;
79074;SDS011;68476;42.710;23.388;2023-03-26T14:57:01;3.22;;;1.17;;
79074;SDS011;68476;42.710;23.388;2023-03-26T15:51:37;1.55;;;1.05;;
79074;SDS011;68476;42.710;23.388;2023-03-26T15:54:08;2.13;;;1.10;;
79074;SDS011;68476;42.710;23.388;2023-03-26T15:59:46;2.50;;;1.27;;
79074;SDS011;68476;42.710;23.388;2023-03-26T16:04:55;1.90;;;1.30;;
79074;SDS011;68476;42.710;23.388;2023-03-26T16:18:30;2.63;;;1.60;;
79074;SDS011;68476;42.710;23.388;2023-03-26T16:21:43;2.30;;;1.50;;
79074;SDS011;68476;42.710;23.388;2023-03-26T16:23:55;2.58;;;1.40;;
79074;SDS011;68476;42.710;23.388;2023-03-26T16:29:21;2.88;;;1.40;;
79074;SDS011;68476;42.710;23.388;2023-03-26T16:34:37;3.53;;;1.58;;
79074;SDS011;68476;42.710;23.388;2023-03-26T16:37:46;2.67;;;1.77;;
79074;SDS011;68476;42.710;23.388;2023-03-26T17:04:10;3.00;;;2.17;;
79074;SDS011;68476;42.710;23.388;2023-03-26T17:06:54;3.35;;;2.20;;
79074;SDS011;68476;42.710;23.388;2023-03-26T17:17:10;3.72;;;2.42;;
79074;SDS011;68476;42.710;23.388;2023-03-26T17:22:12;4.57;;;2.80;;
79074;SDS011;68476;42.710;23.388;2023-03-26T17:32:57;14.02;;;9.18;;
79074;SDS011;68476;42.710;23.388;2023-03-26T17:35:40;13.45;;;8.32;;
79074;SDS011;68476;42.710;23.388;2023-03-26T17:43:32;7.72;;;4.30;;
79074;SDS011;68476;42.710;23.388;2023-03-26T17:46:10;7.78;;;5.10;;
79074;SDS011;68476;42.710;23.388;2023-03-26T17:48:36;9.90;;;5.80;;
79074;SDS011;68476;42.710;23.388;2023-03-26T17:55:04;56.83;;;31.25;;
79074;SDS011;68476;42.710;23.388;2023-03-26T17:59:49;36.78;;;19.80;;
79074;SDS011;68476;42.710;23.388;2023-03-26T18:02:21;33.75;;;19.02;;
79074;SDS011;68476;42.710;23.388;2023-03-26T18:04:57;31.00;;;17.30;;
79074;SDS011;68476;42.710;23.388;2023-03-26T18:15:48;53.50;;;31.42;;
79074;SDS011;68476;42.710;23.388;2023-03-26T18:18:21;75.78;;;43.25;;
79074;SDS011;68476;42.710;23.388;2023-03-26T18:20:49;86.50;;;46.40;;
79074;SDS011;68476;42.710;23.388;2023-03-26T18:23:34;69.40;;;36.25;;
79074;SDS011;68476;42.710;23.388;2023-03-26T18:26:30;30.33;;;18.88;;
79074;SDS011;68476;42.710;23.388;2023-03-26T18:31:49;27.15;;;16.27;;
79074;SDS011;68476;42.710;23.388;2023-03-26T18:34:22;40.25;;;21.40;;
79074;SDS011;68476;42.710;23.388;2023-03-26T18:37:04;44.55;;;23.20;;
79074;SDS011;68476;42.710;23.388;2023-03-26T18:40:30;34.70;;;18.98;;
79074;SDS011;68476;42.710;23.388;2023-03-26T18:42:45;32.47;;;17.50;;
79074;SDS011;68476;42.710;23.388;2023-03-26T18:47:41;13.68;;;9.45;;
79074;SDS011;68476;42.710;23.388;2023-03-26T18:50:12;17.10;;;9.50;;
79074;SDS011;68476;42.710;23.388;2023-03-26T18:52:40;20.90;;;11.25;;
79074;SDS011;68476;42.710;23.388;2023-03-26T18:55:05;20.83;;;11.82;;
79074;SDS011;68476;42.710;23.388;2023-03-26T19:00:10;27.05;;;14.00;;
79074;SDS011;68476;42.710;23.388;2023-03-26T19:02:42;23.55;;;14.43;;
79074;SDS011;68476;42.710;23.388;2023-03-26T19:05:15;22.52;;;13.35;;
79074;SDS011;68476;42.710;23.388;2023-03-26T19:07:43;19.15;;;11.00;;
79074;SDS011;68476;42.710;23.388;2023-03-26T19:10:13;12.93;;;8.05;;
79074;SDS011;68476;42.710;23.388;2023-03-26T19:12:43;17.58;;;9.82;;
79074;SDS011;68476;42.710;23.388;2023-03-26T19:17:43;20.25;;;12.20;;
79074;SDS011;68476;42.710;23.388;2023-03-26T19:20:13;17.90;;;10.05;;
79074;SDS011;68476;42.710;23.388;2023-03-26T19:22:42;12.40;;;8.23;;
79074;SDS011;68476;42.710;23.388;2023-03-26T19:25:14;15.07;;;8.13;;
79074;SDS011;68476;42.710;23.388;2023-03-26T19:27:45;13.48;;;7.82;;
79074;SDS011;68476;42.710;23.388;2023-03-26T19:30:16;10.30;;;7.03;;
79074;SDS011;68476;42.710;23.388;2023-03-26T19:32:52;11.32;;;7.20;;
79074;SDS011;68476;42.710;23.388;2023-03-26T19:35:22;13.07;;;6.68;;
79074;SDS011;68476;42.710;23.388;2023-03-26T19:37:50;13.93;;;7.90;;
79074;SDS011;68476;42.710;23.388;2023-03-26T19:42:53;14.82;;;8.50;;
79074;SDS011;68476;42.710;23.388;2023-03-26T19:45:21;14.40;;;7.88;;
79074;SDS011;68476;42.710;23.388;2023-03-26T19:47:50;15.15;;;8.20;;
79074;SDS011;68476;42.710;23.388;2023-03-26T19:55:37;12.85;;;6.63;;
79074;SDS011;68476;42.710;23.388;2023-03-26T19:58:04;10.85;;;7.07;;
79074;SDS011;68476;42.710;23.388;2023-03-26T20:00:31;11.15;;;6.78;;
79074;SDS011;68476;42.710;23.388;2023-03-26T20:02:57;10.88;;;6.97;;
79074;SDS011;68476;42.710;23.388;2023-03-26T20:05:24;10.48;;;6.15;;
79074;SDS011;68476;42.710;23.388;2023-03-26T20:07:56;8.88;;;5.82;;
79074;SDS011;68476;42.710;23.388;2023-03-26T20:10:24;9.70;;;5.15;;
79074;SDS011;68476;42.710;23.388;2023-03-26T20:12:50;8.80;;;5.40;;
79074;SDS011;68476;42.710;23.388;2023-03-26T20:15:20;8.43;;;5.05;;
79074;SDS011;68476;42.710;23.388;2023-03-26T20:17:47;8.35;;;4.72;;
79074;SDS011;68476;42.710;23.388;2023-03-26T20:20:16;7.60;;;4.28;;
79074;SDS011;68476;42.710;23.388;2023-03-26T20:22:42;6.78;;;4.57;;
79074;SDS011;68476;42.710;23.388;2023-03-26T20:27:43;8.00;;;4.55;;
79074;SDS011;68476;42.710;23.388;2023-03-26T20:30:09;7.95;;;4.35;;
79074;SDS011;68476;42.710;23.388;2023-03-26T20:32:35;8.10;;;4.25;;
79074;SDS011;68476;42.710;23.388;2023-03-26T20:35:08;6.32;;;4.00;;
79074;SDS011;68476;42.710;23.388;2023-03-26T20:37:38;7.45;;;4.38;;
79074;SDS011;68476;42.710;23.388;2023-03-26T20:40:04;8.52;;;4.55;;
79074;SDS011;68476;42.710;23.388;2023-03-26T20:42:31;8.90;;;4.90;;
79074;SDS011;68476;42.710;23.388;2023-03-26T20:44:57;7.75;;;4.40;;
79074;SDS011;68476;42.710;23.388;2023-03-26T20:47:23;6.88;;;4.95;;
79074;SDS011;68476;42.710;23.388;2023-03-26T20:49:48;8.07;;;4.72;;
79074;SDS011;68476;42.710;23.388;2023-03-26T20:52:14;7.45;;;4.93;;
79074;SDS011;68476;42.710;23.388;2023-03-26T20:54:42;8.48;;;4.93;;
79074;SDS011;68476;42.710;23.388;2023-03-26T20:57:08;8.52;;;4.88;;
79074;SDS011;68476;42.710;23.388;2023-03-26T20:59:35;7.15;;;4.30;;
79074;SDS011;68476;42.710;23.388;2023-03-26T21:02:01;6.32;;;4.18;;
79074;SDS011;68476;42.710;23.388;2023-03-26T21:04:26;6.20;;;4.03;;
79074;SDS011;68476;42.710;23.388;2023-03-26T21:06:52;7.18;;;4.07;;
79074;SDS011;68476;42.710;23.388;2023-03-26T21:09:18;6.90;;;4.40;;
79074;SDS011;68476;42.710;23.388;2023-03-26T21:14:20;6.78;;;4.80;;
79074;SDS011;68476;42.710;23.388;2023-03-26T21:16:48;7.70;;;4.60;;
79074;SDS011;68476;42.710;23.388;2023-03-26T21:19:14;7.95;;;4.85;;
79074;SDS011;68476;42.710;23.388;2023-03-26T21:29:43;5.97;;;4.03;;
79074;SDS011;68476;42.710;23.388;2023-03-26T21:32:09;5.28;;;3.83;;
79074;SDS011;68476;42.710;23.388;2023-03-26T21:34:36;7.22;;;4.05;;
79074;SDS011;68476;42.710;23.388;2023-03-26T21:37:02;7.03;;;3.90;;
79074;SDS011;68476;42.710;23.388;2023-03-26T21:39:28;6.22;;;3.72;;
79074;SDS011;68476;42.710;23.388;2023-03-26T21:41:54;5.68;;;3.63;;
79074;SDS011;68476;42.710;23.388;2023-03-26T21:44:20;5.10;;;3.75;;
79074;SDS011;68476;42.710;23.388;2023-03-26T21:46:46;7.35;;;3.70;;
79074;SDS011;68476;42.710;23.388;2023-03-26T21:49:13;5.43;;;3.50;;
79074;SDS011;68476;42.710;23.388;2023-03-26T21:51:41;4.72;;;3.05;;
79074;SDS011;68476;42.710;23.388;2023-03-26T21:54:20;5.45;;;3.35;;
79074;SDS011;68476;42.710;23.388;2023-03-26T21:56:56;4.22;;;2.92;;
79074;SDS011;68476;42.710;23.388;2023-03-26T22:02:02;5.85;;;3.30;;
79074;SDS011;68476;42.710;23.388;2023-03-26T22:04:38;4.45;;;3.10;;
79074;SDS011;68476;42.710;23.388;2023-03-26T22:07:11;4.75;;;3.28;;
79074;SDS011;68476;42.710;23.388;2023-03-26T22:09:39;5.18;;;3.33;;
79074;SDS011;68476;42.710;23.388;2023-03-26T22:12:05;5.72;;;3.13;;
79074;SDS011;68476;42.710;23.388;2023-03-26T22:14:31;4.63;;;3.15;;
79074;SDS011;68476;42.710;23.388;2023-03-26T22:16:57;7.10;;;3.35;;
79074;SDS011;68476;42.710;23.388;2023-03-26T22:19:23;4.53;;;3.00;;
79074;SDS011;68476;42.710;23.388;2023-03-26T22:21:48;4.78;;;3.03;;
79074;SDS011;68476;42.710;23.388;2023-03-26T22:24:15;5.18;;;3.00;;
79074;SDS011;68476;42.710;23.388;2023-03-26T22:26:41;4.93;;;2.92;;
79074;SDS011;68476;42.710;23.388;2023-03-26T22:29:07;6.53;;;3.28;;